createdAt,value
2022-12-24T00:01:02.511Z,99821.34
2022-12-24T00:03:29.799Z,99827.16
2022-12-24T00:05:56.795Z,99834.97
2022-12-24T00:08:23.597Z,99823.91
2022-12-24T00:10:52.361Z,99828.91
2022-12-24T00:13:19.918Z,99827.56
2022-12-24T00:15:46.941Z,99829.78
2022-12-24T00:18:13.949Z,99829.12
2022-12-24T00:20:40.726Z,99831.19
2022-12-24T00:23:07.998Z,99831.34
2022-12-24T00:25:34.881Z,99823.72
2022-12-24T00:28:01.532Z,99800.25
2022-12-24T00:30:28.210Z,99822.38
2022-12-24T00:32:55.090Z,99817.41
2022-12-24T00:35:22.059Z,99817.41
2022-12-24T00:37:49.007Z,99796.69
2022-12-24T00:40:17.101Z,99813.78
2022-12-24T00:42:44.448Z,99812.16
2022-12-24T00:45:12.384Z,99812.16
2022-12-24T00:47:39.628Z,99777.97
2022-12-24T00:50:07.147Z,99791.25
2022-12-24T00:52:33.799Z,99793.31
2022-12-24T00:55:00.743Z,99787.09
2022-12-24T00:57:27.537Z,99791.38
2022-12-24T00:59:54.314Z,99790.25
2022-12-24T01:02:21.726Z,99794.69
2022-12-24T01:05:07.357Z,99795.00
2022-12-24T01:07:35.597Z,99797.63
2022-12-24T01:10:02.387Z,99806.34
2022-12-24T01:12:29.129Z,99800.25
2022-12-24T01:14:56.015Z,99808.81
2022-12-24T01:17:23.351Z,99800.91
2022-12-24T01:19:50.298Z,99804.41
2022-12-24T01:22:17.196Z,99795.28
2022-12-24T01:24:44.264Z,99808.53
2022-12-24T01:27:11.004Z,99803.97
2022-12-24T01:29:37.914Z,99795.13
2022-12-24T01:32:04.715Z,99812.38
2022-12-24T01:34:31.770Z,99820.13
2022-12-24T01:36:58.654Z,99805.91
2022-12-24T01:39:25.251Z,99815.53
2022-12-24T01:42:10.556Z,99794.47
2022-12-24T01:44:43.958Z,99785.84
2022-12-24T01:47:27.688Z,99785.38
2022-12-24T01:50:00.593Z,99791.31
2022-12-24T01:52:33.167Z,99788.84
2022-12-24T01:55:04.985Z,99794.94
2022-12-24T01:57:43.148Z,99793.97
2022-12-24T02:00:13.882Z,99793.00
2022-12-24T02:02:44.269Z,99791.84
2022-12-24T02:05:16.851Z,99782.91
2022-12-24T02:07:43.858Z,99790.88
2022-12-24T02:10:12.798Z,99785.31
2022-12-24T02:12:41.836Z,99765.53
2022-12-24T02:15:12.263Z,99786.53
2022-12-24T02:17:50.277Z,99782.81
2022-12-24T02:20:51.054Z,99785.97
2022-12-24T02:23:53.169Z,99775.94
2022-12-24T02:26:38.478Z,99777.31
2022-12-24T02:29:34.962Z,99769.81
2022-12-24T02:32:10.416Z,99777.09
2022-12-24T02:34:55.558Z,99774.69
2022-12-24T02:37:27.439Z,99769.94
2022-12-24T02:40:17.153Z,99768.47
2022-12-24T02:42:50.142Z,99771.00
2022-12-24T02:45:20.956Z,99772.00
2022-12-24T02:47:49.960Z,99771.00
2022-12-24T02:50:18.227Z,99765.72
2022-12-24T02:52:47.092Z,99757.47
2022-12-24T02:55:32.912Z,99767.09
2022-12-24T02:58:38.975Z,99752.03
2022-12-24T03:01:18.310Z,99766.66
2022-12-24T03:04:20.636Z,99762.88
2022-12-24T03:06:57.533Z,99769.78
2022-12-24T03:09:43.355Z,99752.66
2022-12-24T03:12:16.920Z,99770.84
2022-12-24T03:14:45.384Z,99765.28
2022-12-24T03:17:12.807Z,99757.31
2022-12-24T03:19:39.740Z,99761.66
2022-12-24T03:22:09.880Z,99772.87
2022-12-24T03:24:37.344Z,99778.00
2022-12-24T03:27:08.307Z,99768.28
2022-12-24T03:29:35.541Z,99774.22
2022-12-24T03:32:04.332Z,99765.19
2022-12-24T03:34:31.142Z,99767.16
2022-12-24T03:36:58.272Z,99764.03
2022-12-24T03:39:25.231Z,99755.97
2022-12-24T03:41:51.875Z,99751.56
2022-12-24T03:44:18.503Z,99755.97
2022-12-24T03:46:45.395Z,99743.97
2022-12-24T03:49:12.042Z,99744.78
2022-12-24T03:51:38.772Z,99729.22
2022-12-24T03:54:05.756Z,99743.41
2022-12-24T03:56:32.594Z,99748.19
2022-12-24T03:58:59.227Z,99748.34
2022-12-24T04:01:26.200Z,99741.84
2022-12-24T04:03:53.181Z,99741.84
2022-12-24T04:06:19.833Z,99755.13
2022-12-24T04:08:46.584Z,99759.34
2022-12-24T04:11:15.838Z,99757.37
2022-12-24T04:13:49.108Z,99765.66
2022-12-24T04:16:17.521Z,99760.38
2022-12-24T04:18:44.651Z,99757.44
2022-12-24T04:21:11.904Z,99745.69
2022-12-24T04:23:40.362Z,99757.81
2022-12-24T04:26:09.071Z,99748.91
2022-12-24T04:28:38.065Z,99756.53
2022-12-24T04:31:08.033Z,99756.53
2022-12-24T04:33:35.240Z,99753.72
2022-12-24T04:36:03.301Z,99750.94
2022-12-24T04:38:31.305Z,99749.97
2022-12-24T04:41:02.106Z,99742.50
2022-12-24T04:43:29.471Z,99755.59
2022-12-24T04:45:57.311Z,99738.81
2022-12-24T04:48:23.996Z,99736.97
2022-12-24T04:50:50.794Z,99736.00
2022-12-24T04:53:17.715Z,99732.53
2022-12-24T04:55:45.970Z,99728.19
2022-12-24T04:58:13.837Z,99737.44
2022-12-24T05:00:41.532Z,99744.69
2022-12-24T05:03:08.304Z,99734.87
2022-12-24T05:05:35.025Z,99742.87
2022-12-24T05:08:01.941Z,99734.16
2022-12-24T05:10:28.639Z,99734.16
2022-12-24T05:12:56.379Z,99724.19
2022-12-24T05:15:23.317Z,99737.44
2022-12-24T05:17:50.063Z,99737.59
2022-12-24T05:20:17.092Z,99735.13
2022-12-24T05:23:02.469Z,99738.72
2022-12-24T05:25:53.143Z,99731.78
2022-12-24T05:28:20.129Z,99732.66
2022-12-24T05:30:46.884Z,99741.37
2022-12-24T05:33:13.568Z,99744.00
2022-12-24T05:35:40.661Z,99744.00
2022-12-24T05:38:07.314Z,99751.75
2022-12-24T05:40:33.996Z,99750.09
2022-12-24T05:43:00.885Z,99752.59
2022-12-24T05:45:28.327Z,99755.25
2022-12-24T05:47:54.926Z,99768.44
2022-12-24T05:50:21.829Z,99764.78
2022-12-24T05:52:48.482Z,99749.59
2022-12-24T05:55:15.192Z,99752.88
2022-12-24T05:57:42.167Z,99765.47
2022-12-24T06:00:09.691Z,99758.38
2022-12-24T06:02:38.918Z,99767.13
2022-12-24T06:05:06.603Z,99774.88
2022-12-24T06:07:33.309Z,99767.81
2022-12-24T06:09:59.925Z,99772.09
2022-12-24T06:12:27.115Z,99790.53
2022-12-24T06:14:53.787Z,99777.34
2022-12-24T06:17:20.431Z,99788.06
2022-12-24T06:19:47.417Z,99793.88
2022-12-24T06:22:14.031Z,99792.88
2022-12-24T06:24:40.657Z,99759.00
2022-12-24T06:27:07.559Z,99789.91
2022-12-24T06:29:34.164Z,99790.78
2022-12-24T06:32:00.926Z,99790.63
2022-12-24T06:34:27.987Z,99792.25
2022-12-24T06:36:54.677Z,99785.97
2022-12-24T06:39:21.318Z,99794.72
2022-12-24T06:41:48.184Z,99791.94
2022-12-24T06:44:14.860Z,99790.97
2022-12-24T06:46:41.577Z,99792.31
2022-12-24T06:49:08.588Z,99790.34
2022-12-24T06:51:35.293Z,99789.22
2022-12-24T06:54:02.037Z,99779.44
2022-12-24T06:56:29.014Z,99786.22
2022-12-24T06:58:58.870Z,99780.81
2022-12-24T07:01:30.272Z,99796.34
2022-12-24T07:03:57.347Z,99799.66
2022-12-24T07:06:29.600Z,99803.00
2022-12-24T07:08:56.883Z,99806.28
2022-12-24T07:11:25.441Z,99800.84
2022-12-24T07:13:52.084Z,99809.31
2022-12-24T07:16:19.184Z,99802.06
2022-12-24T07:18:46.008Z,99796.63
2022-12-24T07:21:12.684Z,99803.41
2022-12-24T07:23:39.613Z,99795.50
2022-12-24T07:26:06.960Z,99798.44
2022-12-24T07:28:33.810Z,99802.06
2022-12-24T07:31:00.980Z,99804.69
2022-12-24T07:33:27.847Z,99800.06
2022-12-24T07:35:59.491Z,99799.88
2022-12-24T07:38:26.573Z,99795.66
2022-12-24T07:40:53.225Z,99805.34
2022-12-24T07:43:19.886Z,99803.41
2022-12-24T07:45:46.857Z,99803.41
2022-12-24T07:48:13.522Z,99790.53
2022-12-24T07:50:40.308Z,99804.09
2022-12-24T07:53:07.233Z,99801.31
2022-12-24T07:55:33.936Z,99804.47
2022-12-24T07:58:00.565Z,99798.22
2022-12-24T08:00:27.590Z,99802.19
2022-12-24T08:02:54.757Z,99798.41
2022-12-24T08:05:21.569Z,99787.66
2022-12-24T08:07:48.205Z,99794.94
2022-12-24T08:10:15.182Z,99794.41
2022-12-24T08:12:41.867Z,99789.75
2022-12-24T08:15:08.868Z,99796.88
2022-12-24T08:17:35.818Z,99795.19
2022-12-24T08:20:02.872Z,99780.34
2022-12-24T08:22:29.575Z,99785.63
2022-12-24T08:24:56.834Z,99776.22
2022-12-24T08:27:24.075Z,99778.03
2022-12-24T08:29:50.737Z,99779.53
2022-12-24T08:32:18.589Z,99779.91
2022-12-24T08:34:45.199Z,99773.13
2022-12-24T08:37:11.939Z,99758.25
2022-12-24T08:39:38.804Z,99773.13
2022-12-24T08:42:06.219Z,99790.63
2022-12-24T08:44:33.016Z,99779.75
2022-12-24T08:47:00.111Z,99766.06
2022-12-24T08:49:26.788Z,99778.81
2022-12-24T08:51:53.502Z,99784.31
2022-12-24T08:54:22.472Z,99780.16
2022-12-24T08:56:49.279Z,99770.28
2022-12-24T08:59:16.041Z,99780.72
2022-12-24T09:01:43.367Z,99781.22
2022-12-24T09:04:10.119Z,99786.19
2022-12-24T09:06:36.827Z,99793.63
2022-12-24T09:09:04.681Z,99788.69
2022-12-24T09:11:31.768Z,99794.63
2022-12-24T09:13:58.481Z,99793.81
2022-12-24T09:16:25.667Z,99797.09
2022-12-24T09:18:52.287Z,99787.37
2022-12-24T09:21:19.125Z,99792.84
2022-12-24T09:23:47.852Z,99790.72
2022-12-24T09:26:21.161Z,99793.84
2022-12-24T09:28:48.745Z,99783.75
2022-12-24T09:31:16.140Z,99784.28
2022-12-24T09:33:44.688Z,99792.53
2022-12-24T09:36:11.686Z,99786.09
2022-12-24T09:38:40.234Z,99785.78
2022-12-24T09:41:22.446Z,99775.00
2022-12-24T09:43:55.697Z,99791.38
2022-12-24T09:46:32.072Z,99789.59
2022-12-24T09:49:04.640Z,99784.31
2022-12-24T09:51:40.298Z,99786.78
2022-12-24T09:54:18.256Z,99776.34
2022-12-24T09:56:49.037Z,99798.50
2022-12-24T09:59:21.595Z,99786.59
2022-12-24T10:01:50.820Z,99777.50
2022-12-24T10:04:20.825Z,99797.66
2022-12-24T10:06:59.737Z,99800.78
2022-12-24T10:09:40.864Z,99783.56
2022-12-24T10:12:51.444Z,99806.91
2022-12-24T10:15:36.631Z,99806.38
2022-12-24T10:18:24.716Z,99791.31
2022-12-24T10:21:02.569Z,99810.00
2022-12-24T10:23:40.919Z,99807.00
2022-12-24T10:26:07.790Z,99809.31
2022-12-24T10:28:42.603Z,99797.09
2022-12-24T10:31:10.577Z,99807.34
2022-12-24T10:33:49.988Z,99804.00
2022-12-24T10:36:20.703Z,99807.94
2022-12-24T10:38:47.399Z,99805.28
2022-12-24T10:41:15.900Z,99809.91
2022-12-24T10:43:45.163Z,99801.47
2022-12-24T10:46:33.015Z,99796.19
2022-12-24T10:49:13.151Z,99816.88
2022-12-24T10:51:51.335Z,99808.63
2022-12-24T10:54:27.043Z,99809.97
2022-12-24T10:57:00.704Z,99811.97
2022-12-24T10:59:42.249Z,99804.69
2022-12-24T11:02:33.647Z,99816.44
2022-12-24T11:05:03.414Z,99819.59
2022-12-24T11:07:31.658Z,99817.78
2022-12-24T11:10:00.481Z,99826.22
2022-12-24T11:12:32.519Z,99796.78
2022-12-24T11:15:19.478Z,99818.63
2022-12-24T11:18:05.905Z,99811.84
2022-12-24T11:20:34.772Z,99813.03
2022-12-24T11:23:02.889Z,99804.94
2022-12-24T11:25:32.163Z,99815.03
2022-12-24T11:28:12.495Z,99814.69
2022-12-24T11:30:39.557Z,99812.53
2022-12-24T11:33:09.211Z,99812.72
2022-12-24T11:35:41.531Z,99822.31
2022-12-24T11:38:08.361Z,99821.97
2022-12-24T11:40:58.432Z,99804.78
2022-12-24T11:43:44.260Z,99817.66
2022-12-24T11:46:17.175Z,99824.28
2022-12-24T11:48:44.619Z,99826.44
2022-12-24T11:51:27.563Z,99820.81
2022-12-24T11:54:19.719Z,99821.50
2022-12-24T11:56:51.934Z,99825.47
2022-12-24T11:59:26.109Z,99820.84
2022-12-24T12:01:56.777Z,99824.31
2022-12-24T12:04:39.000Z,99818.84
2022-12-24T12:07:30.709Z,99827.59
2022-12-24T12:10:04.429Z,99830.09
2022-12-24T12:12:36.171Z,99830.41
2022-12-24T12:15:17.267Z,99826.25
2022-12-24T12:17:54.372Z,99834.84
2022-12-24T12:20:30.489Z,99835.47
2022-12-24T12:23:24.384Z,99830.53
2022-12-24T12:26:04.555Z,99817.63
2022-12-24T12:28:51.776Z,99837.78
2022-12-24T12:31:41.071Z,99831.81
2022-12-24T12:34:19.095Z,99841.91
2022-12-24T12:36:54.526Z,99846.84
2022-12-24T12:39:21.253Z,99826.81
2022-12-24T12:42:09.509Z,99844.66
2022-12-24T12:44:42.342Z,99842.03
2022-12-24T12:47:28.188Z,99846.50
2022-12-24T12:50:13.697Z,99848.31
2022-12-24T12:53:02.240Z,99850.28
2022-12-24T12:55:59.795Z,99843.66
2022-12-24T12:58:51.266Z,99848.97
2022-12-24T13:01:32.968Z,99853.38
2022-12-24T13:04:17.094Z,99857.53
2022-12-24T13:06:58.854Z,99858.81
2022-12-24T13:09:49.674Z,99863.56
2022-12-24T13:12:26.790Z,99863.22
2022-12-24T13:15:08.959Z,99853.94
2022-12-24T13:17:55.616Z,99861.03
2022-12-24T13:20:32.991Z,99877.06
2022-12-24T13:23:02.462Z,99873.75
2022-12-24T13:25:37.588Z,99886.44
2022-12-24T13:28:20.759Z,99870.19
2022-12-24T13:30:49.056Z,99876.47
2022-12-24T13:33:38.964Z,99892.00
2022-12-24T13:36:08.891Z,99890.50
2022-12-24T13:38:54.495Z,99886.19
2022-12-24T13:41:39.542Z,99892.16
2022-12-24T13:44:06.971Z,99891.31
2022-12-24T13:46:57.827Z,99883.38
2022-12-24T13:49:39.318Z,99886.34
2022-12-24T13:52:12.344Z,99894.25
2022-12-24T13:54:46.892Z,99898.06
2022-12-24T13:57:38.247Z,99884.94
2022-12-24T14:00:39.134Z,99909.09
2022-12-24T14:03:17.272Z,99920.47
2022-12-24T14:05:43.907Z,99916.00
2022-12-24T14:08:15.199Z,99922.94
2022-12-24T14:10:59.767Z,99928.22
2022-12-24T14:13:38.868Z,99922.94
2022-12-24T14:16:31.844Z,99935.03
2022-12-24T14:19:19.294Z,99933.19
2022-12-24T14:21:55.221Z,99924.94
2022-12-24T14:24:25.533Z,99942.47
2022-12-24T14:26:57.130Z,99934.72
2022-12-24T14:29:43.120Z,99928.06
2022-12-24T14:32:15.647Z,99944.81
2022-12-24T14:34:43.389Z,99935.03
2022-12-24T14:37:13.428Z,99931.53
2022-12-24T14:39:48.133Z,99940.50
2022-12-24T14:42:47.249Z,99947.28
2022-12-24T14:45:19.897Z,99952.56
2022-12-24T14:48:13.617Z,99961.97
2022-12-24T14:50:49.255Z,99969.63
2022-12-24T14:54:02.318Z,99977.38
2022-12-24T14:56:28.917Z,99971.25
2022-12-24T14:58:56.758Z,99971.94
2022-12-24T15:01:26.244Z,99966.81
2022-12-24T15:04:06.034Z,99968.63
2022-12-24T15:06:36.942Z,99967.56
2022-12-24T15:09:04.979Z,99981.81
2022-12-24T15:11:32.283Z,99978.03
2022-12-24T15:14:00.606Z,99984.31
2022-12-24T15:16:32.880Z,99973.38
2022-12-24T15:19:06.885Z,99979.72
2022-12-24T15:21:41.827Z,99981.34
2022-12-24T15:24:25.441Z,99973.06
2022-12-24T15:26:52.265Z,99987.47
2022-12-24T15:29:39.264Z,99984.69
2022-12-24T15:32:06.175Z,99982.19
2022-12-24T15:34:39.347Z,99979.56
2022-12-24T15:37:21.942Z,99982.81
2022-12-24T15:40:16.774Z,99991.09
2022-12-24T15:42:44.168Z,99984.47
2022-12-24T15:45:27.651Z,99992.38
2022-12-24T15:48:09.055Z,99993.37
2022-12-24T15:50:38.731Z,99977.78
2022-12-24T15:53:20.197Z,99990.66
2022-12-24T15:56:11.356Z,99984.03
2022-12-24T15:58:43.401Z,99989.75
2022-12-24T16:01:13.497Z,99990.22
2022-12-24T16:03:54.685Z,99995.00
2022-12-24T16:06:23.143Z,99975.91
2022-12-24T16:08:51.881Z,99996.72
2022-12-24T16:11:33.699Z,99989.94
2022-12-24T16:14:04.354Z,99997.34
2022-12-24T16:16:41.954Z,99999.00
2022-12-24T16:19:21.140Z,100002.91
2022-12-24T16:21:55.402Z,99983.38
2022-12-24T16:24:24.036Z,100001.25
2022-12-24T16:26:51.168Z,100000.13
2022-12-24T16:29:19.429Z,100002.75
2022-12-24T16:32:04.842Z,100013.16
2022-12-24T16:34:33.145Z,100004.13
2022-12-24T16:37:00.402Z,100002.31
2022-12-24T16:39:32.433Z,100012.84
2022-12-24T16:42:20.498Z,100010.37
2022-12-24T16:44:48.509Z,100025.09
2022-12-24T16:47:22.153Z,100018.81
2022-12-24T16:49:50.372Z,100022.28
2022-12-24T16:52:22.750Z,100019.50
2022-12-24T16:54:50.596Z,100023.13
2022-12-24T16:57:17.652Z,100006.22
2022-12-24T16:59:44.419Z,100024.25
2022-12-24T17:02:17.318Z,100020.63
2022-12-24T17:04:45.106Z,100024.09
2022-12-24T17:07:14.394Z,100030.37
2022-12-24T17:09:41.436Z,100030.37
2022-12-24T17:12:08.584Z,100035.94
2022-12-24T17:14:36.151Z,100039.25
2022-12-24T17:17:02.844Z,100042.19
2022-12-24T17:19:29.487Z,100036.81
2022-12-24T17:21:56.401Z,100041.81
2022-12-24T17:24:23.110Z,100042.78
2022-12-24T17:26:55.931Z,100044.06
2022-12-24T17:29:22.867Z,100044.72
2022-12-24T17:31:51.390Z,100035.19
2022-12-24T17:34:18.205Z,100033.34
2022-12-24T17:36:45.165Z,100026.87
2022-12-24T17:39:11.849Z,100034.94
2022-12-24T17:41:38.592Z,100041.06
2022-12-24T17:44:08.811Z,100035.53
2022-12-24T17:46:35.536Z,100051.59
2022-12-24T17:49:02.316Z,100042.69
2022-12-24T17:51:31.082Z,100040.75
2022-12-24T17:53:57.693Z,100033.59
2022-12-24T17:56:24.683Z,100052.66
2022-12-24T17:58:51.587Z,100051.69
2022-12-24T18:01:21.514Z,100050.72
2022-12-24T18:03:50.570Z,100058.47
2022-12-24T18:06:18.769Z,100053.03
2022-12-24T18:08:46.995Z,100048.44
2022-12-24T18:11:21.585Z,100056.22
2022-12-24T18:13:49.393Z,100052.06
2022-12-24T18:16:19.633Z,100053.41
2022-12-24T18:18:47.433Z,100063.66
2022-12-24T18:21:15.621Z,100050.41
2022-12-24T18:23:43.909Z,100070.91
2022-12-24T18:26:12.058Z,100072.59
2022-12-24T18:28:38.851Z,100077.03
2022-12-24T18:31:09.049Z,100076.19
2022-12-24T18:33:36.007Z,100082.00
2022-12-24T18:36:02.649Z,100088.13
2022-12-24T18:38:29.837Z,100081.19
2022-12-24T18:41:06.641Z,100086.31
2022-12-24T18:43:34.263Z,100075.81
2022-12-24T18:46:13.938Z,100090.63
2022-12-24T18:48:41.259Z,100093.00
2022-12-24T18:51:09.793Z,100088.88
2022-12-24T18:53:38.605Z,100111.19
2022-12-24T18:56:07.543Z,100121.06
2022-12-24T18:58:34.373Z,100122.88
2022-12-24T19:01:01.358Z,100120.25
2022-12-24T19:03:28.261Z,100124.66
2022-12-24T19:06:01.402Z,100121.34
2022-12-24T19:08:56.462Z,100131.25
2022-12-24T19:11:16.702Z,100133.47
2022-12-24T19:13:48.212Z,100125.94
2022-12-24T19:16:16.007Z,100140.47
2022-12-24T19:18:43.565Z,100137.44
2022-12-24T19:21:12.765Z,100123.59
2022-12-24T19:23:39.441Z,100133.88
2022-12-24T19:26:06.969Z,100144.56
2022-12-24T19:28:34.032Z,100143.31
2022-12-24T19:31:13.393Z,100135.31
2022-12-24T19:33:46.954Z,100147.25
2022-12-24T19:36:19.942Z,100160.59
2022-12-24T19:38:47.707Z,100160.72
2022-12-24T19:41:20.319Z,100155.59
2022-12-24T19:43:50.078Z,100160.03
2022-12-24T19:46:20.275Z,100163.66
2022-12-24T19:48:53.420Z,100163.66
2022-12-24T19:51:21.180Z,100165.59
2022-12-24T19:53:48.463Z,100165.59
2022-12-24T19:56:16.848Z,100163.94
2022-12-24T19:58:44.597Z,100168.22
2022-12-24T20:01:17.817Z,100170.03
2022-12-24T20:03:45.727Z,100178.78
2022-12-24T20:06:13.705Z,100177.00
2022-12-24T20:08:40.893Z,100182.25
2022-12-24T20:11:10.562Z,100186.69
2022-12-24T20:13:38.531Z,100183.22
2022-12-24T20:16:12.313Z,100183.50
2022-12-24T20:18:39.742Z,100178.66
2022-12-24T20:21:09.072Z,100187.78
2022-12-24T20:23:38.776Z,100193.22
2022-12-24T20:26:08.000Z,100194.22
2022-12-24T20:28:36.894Z,100191.72
2022-12-24T20:31:15.334Z,100197.81
2022-12-24T20:33:43.698Z,100198.09
2022-12-24T20:36:11.279Z,100205.03
2022-12-24T20:38:38.862Z,100207.69
2022-12-24T20:41:07.231Z,100205.84
2022-12-24T20:43:36.292Z,100206.97
2022-12-24T20:46:06.497Z,100202.53
2022-12-24T20:48:33.956Z,100200.63
2022-12-24T20:51:05.768Z,100213.22
2022-12-24T20:53:32.735Z,100217.50
2022-12-24T20:55:59.482Z,100221.13
2022-12-24T20:58:26.123Z,100218.78
2022-12-24T21:00:53.318Z,100222.00
2022-12-24T21:03:20.268Z,100228.38
2022-12-24T21:05:47.021Z,100227.66
2022-12-24T21:08:14.342Z,100223.66
2022-12-24T21:10:41.600Z,100213.41
2022-12-24T21:13:08.801Z,100230.59
2022-12-24T21:15:39.900Z,100231.03
2022-12-24T21:18:12.023Z,100215.34
2022-12-24T21:20:41.159Z,100230.63
2022-12-24T21:23:08.035Z,100234.34
2022-12-24T21:25:35.641Z,100231.72
2022-12-24T21:28:02.846Z,100231.84
2022-12-24T21:30:29.826Z,100236.41
2022-12-24T21:32:56.601Z,100239.19
2022-12-24T21:35:23.481Z,100236.00
2022-12-24T21:37:50.388Z,100249.03
2022-12-24T21:40:17.175Z,100231.56
2022-12-24T21:42:44.489Z,100236.16
2022-12-24T21:45:12.708Z,100236.00
2022-12-24T21:47:39.437Z,100244.88
2022-12-24T21:50:36.362Z,100238.78
2022-12-24T21:53:22.071Z,100253.06
2022-12-24T21:55:49.051Z,100241.69
2022-12-24T21:58:16.793Z,100240.72
2022-12-24T22:00:43.551Z,100245.28
2022-12-24T22:03:10.517Z,100247.25
2022-12-24T22:05:37.280Z,100237.94
2022-12-24T22:08:22.705Z,100247.50
2022-12-24T22:11:08.718Z,100225.59
2022-12-24T22:13:35.595Z,100244.31
2022-12-24T22:16:02.586Z,100246.81
2022-12-24T22:18:29.217Z,100252.78
2022-12-24T22:20:56.464Z,100238.78
2022-12-24T22:23:24.069Z,100250.69
2022-12-24T22:25:50.740Z,100249.84
2022-12-24T22:28:17.422Z,100253.59
2022-12-24T22:30:44.465Z,100254.69
2022-12-24T22:46:14.638Z,100285.53
2022-12-24T22:48:43.330Z,100285.53
2022-12-24T22:51:15.961Z,100277.75
2022-12-24T22:53:43.390Z,100286.88
2022-12-24T22:56:15.690Z,100266.09
2022-12-24T22:58:42.509Z,100277.72
2022-12-24T23:01:10.568Z,100289.38
2022-12-24T23:03:37.794Z,100292.16
2022-12-24T23:06:07.025Z,100288.84
2022-12-24T23:08:36.222Z,100296.03
2022-12-24T23:11:14.827Z,100298.78
2022-12-24T23:14:02.636Z,100301.97
2022-12-24T23:16:30.558Z,100299.34
2022-12-24T23:18:59.756Z,100296.56
2022-12-24T23:21:27.616Z,100306.41
2022-12-24T23:23:55.867Z,100313.47
2022-12-24T23:26:23.694Z,100303.91
2022-12-24T23:28:52.979Z,100312.50
2022-12-24T23:31:20.675Z,100299.34
2022-12-24T23:33:49.095Z,100314.72
2022-12-24T23:36:15.932Z,100325.13
2022-12-24T23:38:42.677Z,100322.50
2022-12-24T23:41:10.966Z,100326.91
2022-12-24T23:43:37.986Z,100331.34
2022-12-24T23:46:04.840Z,100333.16
2022-12-24T23:48:32.051Z,100340.34
2022-12-24T23:51:11.718Z,100332.72
2022-12-24T23:53:39.035Z,100344.91
2022-12-24T23:56:07.465Z,100348.50
2022-12-24T23:58:34.209Z,100346.72
